Time;durP1;ratioP1;P1;durP2;ratioP2;P2;SDS_P1;SDS_P2;PMS_P1;PMS_P2;Temp;Humidity;BMP_temperature;BMP_pressure;BME280_temperature;BME280_humidity;BME280_pressure;Samples;Min_cycle;Max_cycle;Signal;HPM_P1;HPM_P2
2022/05/31 00:00:12;;;;;;;12.67;7.43;;;;;;;9.45;74.18;101244.47;5052364;28;20109;-86
2022/05/31 00:02:38;;;;;;;9.53;6.93;;;;;;;9.44;74.84;101260.88;5052407;28;20025;-86
2022/05/31 00:05:05;;;;;;;11.00;7.00;;;;;;;9.43;73.73;101246.50;5032439;28;20098;-86
2022/05/31 00:07:30;;;;;;;12.00;6.60;;;;;;;9.48;72.92;101251.34;5045363;28;20481;-86
2022/05/31 00:09:56;;;;;;;11.17;6.60;;;;;;;9.48;72.94;101247.78;5054190;28;20101;-85
2022/05/31 00:12:21;;;;;;;9.50;6.57;;;;;;;9.32;74.60;101238.91;5044673;28;20530;-86
2022/05/31 00:14:46;;;;;;;10.57;7.27;;;;;;;9.31;74.99;101241.81;5053253;28;20127;-86
2022/05/31 00:17:12;;;;;;;9.27;6.90;;;;;;;9.36;75.12;101245.63;5032304;28;20075;-86
2022/05/31 00:19:38;;;;;;;9.50;6.93;;;;;;;9.37;74.66;101241.03;5052805;28;20025;-86
2022/05/31 00:22:11;;;;;;;11.73;7.10;;;;;;;9.33;74.81;101239.75;5053718;28;20032;-86
2022/05/31 00:24:39;;;;;;;7.53;6.15;;;;;;;9.27;74.66;101244.94;5045547;28;20464;-86
2022/05/31 00:27:06;;;;;;;10.83;6.70;;;;;;;9.32;74.27;101241.63;5044977;28;21336;-85
2022/05/31 00:29:32;;;;;;;12.57;6.67;;;;;;;9.26;73.97;101245.94;5031591;28;20457;-86
2022/05/31 00:32:00;;;;;;;9.77;6.67;;;;;;;9.31;72.96;101247.22;5053935;28;20071;-86
2022/05/31 00:34:26;;;;;;;10.20;5.90;;;;;;;9.32;72.39;101238.09;5044690;28;20055;-86
2022/05/31 00:36:51;;;;;;;10.33;6.07;;;;;;;9.34;72.39;101238.72;5041516;28;20024;-86
2022/05/31 00:39:18;;;;;;;9.17;6.10;;;;;;;9.26;73.37;101243.25;5052311;28;20389;-85
2022/05/31 00:42:06;;;;;;;9.70;6.40;;;;;;;9.28;74.37;101238.47;5053936;28;20068;-86
2022/05/31 00:44:33;;;;;;;9.50;5.97;;;;;;;9.23;74.01;101240.06;5053868;28;20575;-86
2022/05/31 00:47:04;;;;;;;10.07;5.83;;;;;;;9.31;73.85;101241.81;5030895;28;20664;-86
2022/05/31 00:49:37;;;;;;;10.40;6.10;;;;;;;9.33;73.57;101242.44;5044147;28;20032;-86
2022/05/31 00:52:42;;;;;;;9.17;5.77;;;;;;;9.32;73.85;101248.91;5047358;28;20404;-86
2022/05/31 00:55:19;;;;;;;6.72;5.88;;;;;;;9.30;74.10;101251.78;5046738;28;20051;-86
2022/05/31 00:58:08;;;;;;;10.33;6.47;;;;;;;9.22;75.69;101238.41;5051857;28;20393;-86
2022/05/31 01:00:36;;;;;;;7.50;5.60;;;;;;;9.16;75.19;101236.47;5054329;28;20036;-85
2022/05/31 01:03:03;;;;;;;8.83;5.80;;;;;;;9.23;74.32;101243.63;5056922;28;20045;-86
2022/05/31 01:05:28;;;;;;;11.83;6.47;;;;;;;9.12;74.95;101238.72;5051001;28;20024;-86
2022/05/31 01:07:54;;;;;;;8.87;6.27;;;;;;;9.07;76.41;101241.16;5022564;28;20039;-86
2022/05/31 01:10:20;;;;;;;9.50;5.97;;;;;;;9.01;76.05;101223.03;5057436;28;20024;-86
2022/05/31 01:12:47;;;;;;;9.30;6.23;;;;;;;8.91;76.14;101216.06;5055808;28;20055;-86
2022/05/31 01:15:15;;;;;;;9.20;6.07;;;;;;;9.07;74.95;101238.47;5037955;28;20052;-86
2022/05/31 01:17:42;;;;;;;8.63;6.17;;;;;;;9.03;75.29;101229.06;5047225;28;20032;-86
2022/05/31 01:20:13;;;;;;;10.23;6.53;;;;;;;9.04;76.39;101228.03;5056495;28;20056;-86
2022/05/31 01:22:45;;;;;;;10.00;6.70;;;;;;;9.03;76.91;101229.91;5047647;28;20124;-86
2022/05/31 01:25:50;;;;;;;11.90;6.73;;;;;;;9.06;76.44;101228.69;5054014;28;20551;-86
2022/05/31 01:28:24;;;;;;;9.47;6.33;;;;;;;8.90;77.86;101229.78;5056619;28;20075;-85
2022/05/31 01:31:19;;;;;;;10.18;6.63;;;;;;;8.95;78.06;101222.75;5057603;28;20024;-85
2022/05/31 01:33:45;;;;;;;;;;;;;;;9.09;75.38;101231.00;5049366;28;20390;-85
2022/05/31 01:36:40;;;;;;;10.17;6.37;;;;;;;8.91;77.73;101220.66;5055240;28;19931;-85
2022/05/31 01:39:14;;;;;;;10.98;6.82;;;;;;;8.83;77.19;101218.88;5057505;28;20041;-85
2022/05/31 01:41:48;;;;;;;8.95;6.15;;;;;;;8.86;77.56;101217.66;5055287;28;20036;-85
2022/05/31 01:44:16;;;;;;;;;;;;;;;8.97;75.43;101221.72;5057109;28;20033;-85
2022/05/31 01:46:42;;;;;;;8.60;5.90;;;;;;;8.83;76.15;101227.00;5057928;28;19917;-85
2022/05/31 01:49:13;;;;;;;11.47;6.90;;;;;;;8.79;77.92;101221.13;5073671;28;20167;-85
2022/05/31 01:51:41;;;;;;;11.13;6.67;;;;;;;8.78;78.53;101221.31;5055456;28;20902;-85
2022/05/31 01:54:08;;;;;;;10.93;6.30;;;;;;;8.70;77.84;101218.72;5057775;28;20382;-85
2022/05/31 01:56:35;;;;;;;8.23;6.27;;;;;;;8.71;77.17;101221.25;5056579;28;20040;-85
2022/05/31 01:59:03;;;;;;;12.43;6.23;;;;;;;8.70;76.47;101206.06;5032767;28;20385;-86
2022/05/31 02:01:30;;;;;;;10.00;6.07;;;;;;;8.72;76.83;101214.00;5049171;28;20037;-86
2022/05/31 02:03:56;;;;;;;9.40;5.83;;;;;;;8.72;75.93;101214.81;5031660;28;20612;-85
2022/05/31 02:06:37;;;;;;;10.13;5.83;;;;;;;8.71;75.98;101212.31;5051182;28;20036;-85
2022/05/31 02:09:06;;;;;;;9.87;6.20;;;;;;;8.71;75.47;101215.00;5056682;28;20028;-85
2022/05/31 02:11:31;;;;;;;8.60;5.77;;;;;;;8.70;75.48;101213.31;5057335;28;20492;-85
2022/05/31 02:13:58;;;;;;;13.57;6.50;;;;;;;8.77;75.79;101222.34;5055510;28;20039;-85
2022/05/31 02:16:24;;;;;;;11.17;6.80;;;;;;;8.74;76.06;101214.63;5055555;28;20039;-85
2022/05/31 02:21:36;;;;;;;8.80;5.87;;;;;;;8.75;76.24;101209.03;5061581;28;20124;-85
2022/05/31 02:24:13;;;;;;;9.10;6.33;;;;;;;8.76;76.26;101215.28;5065606;28;20299;-85
2022/05/31 02:26:41;;;;;;;9.03;6.20;;;;;;;8.77;76.05;101214.22;5063566;28;20596;-85
2022/05/31 02:29:08;;;;;;;10.90;6.20;;;;;;;8.68;77.74;101216.22;5085114;28;20024;-85
2022/05/31 02:31:34;;;;;;;9.43;6.40;;;;;;;8.64;78.14;101219.50;5049645;28;20025;-85
2022/05/31 02:34:00;;;;;;;11.97;6.50;;;;;;;8.54;78.79;101215.25;5064855;28;20025;-85
2022/05/31 02:36:26;;;;;;;12.07;6.27;;;;;;;8.47;79.36;101205.38;5064081;28;20021;-85
2022/05/31 02:38:52;;;;;;;10.70;6.80;;;;;;;8.43;80.08;101204.88;5084751;28;20016;-85
2022/05/31 02:41:17;;;;;;;9.80;6.73;;;;;;;8.48;80.22;101205.19;5068016;28;20378;-85
2022/05/31 02:43:43;;;;;;;10.77;7.00;;;;;;;8.41;79.16;101199.66;5067196;28;20059;-84
2022/05/31 02:46:08;;;;;;;11.87;6.67;;;;;;;8.41;79.63;101201.53;5068882;28;20039;-84
2022/05/31 02:48:34;;;;;;;9.37;6.53;;;;;;;8.42;79.62;101195.94;5064261;28;20028;-84
2022/05/31 02:50:59;;;;;;;10.37;7.00;;;;;;;8.36;80.71;101187.75;5067677;28;20028;-84
2022/05/31 02:53:24;;;;;;;10.93;6.80;;;;;;;8.37;81.25;101197.53;5049409;28;20036;-85
2022/05/31 02:55:50;;;;;;;10.23;6.90;;;;;;;8.36;81.35;101196.69;5044302;28;20020;-85
2022/05/31 02:58:15;;;;;;;10.43;6.97;;;;;;;8.42;81.22;101195.94;5064288;28;20392;-84
2022/05/31 03:00:40;;;;;;;13.10;7.50;;;;;;;8.40;80.51;101203.38;5052358;28;20032;-85
2022/05/31 03:03:06;;;;;;;12.07;7.27;;;;;;;8.38;81.60;101202.75;5067812;28;20032;-85
2022/05/31 03:05:32;;;;;;;11.77;7.53;;;;;;;8.46;82.19;101201.84;5060041;28;20580;-85
2022/05/31 03:07:58;;;;;;;10.10;7.50;;;;;;;8.41;82.26;101196.97;5047445;28;20078;-85
2022/05/31 03:10:28;;;;;;;10.67;7.47;;;;;;;8.43;81.77;101197.63;5070575;28;20027;-85
2022/05/31 03:12:55;;;;;;;10.70;7.33;;;;;;;8.44;81.88;101198.44;5071659;28;20033;-85
2022/05/31 03:15:23;;;;;;;11.87;7.70;;;;;;;8.49;81.49;101196.06;5036515;28;20547;-85
2022/05/31 03:17:57;;;;;;;12.97;8.33;;;;;;;8.43;81.15;101202.16;5057874;28;20040;-85
2022/05/31 03:20:30;;;;;;;14.23;7.97;;;;;;;8.44;82.40;101198.44;5051996;28;20021;-85
2022/05/31 03:23:06;;;;;;;14.97;8.40;;;;;;;8.45;82.70;101189.38;5065626;28;20054;-85
2022/05/31 03:25:32;;;;;;;13.87;8.43;;;;;;;8.47;82.43;101194.56;5056333;28;20389;-85
2022/05/31 03:28:00;;;;;;;13.17;8.37;;;;;;;8.49;82.81;101198.75;5056825;28;20029;-85
2022/05/31 03:30:26;;;;;;;14.50;8.83;;;;;;;8.41;81.85;101188.88;5061038;28;20028;-85
2022/05/31 03:32:53;;;;;;;13.27;8.00;;;;;;;8.47;83.75;101192.69;5061399;28;20040;-85
2022/05/31 03:35:19;;;;;;;14.60;8.63;;;;;;;8.50;81.98;101197.75;5051547;28;20389;-85
2022/05/31 03:37:44;;;;;;;13.27;8.53;;;;;;;8.53;81.92;101185.72;5068894;28;20031;-85
2022/05/31 03:40:11;;;;;;;15.30;8.73;;;;;;;8.67;82.33;101202.91;5048865;28;20469;-85
2022/05/31 03:42:36;;;;;;;15.43;8.93;;;;;;;8.60;83.43;101192.84;5049068;28;20093;-85
2022/05/31 03:45:02;;;;;;;12.37;8.77;;;;;;;8.67;82.66;101198.34;5031745;28;20028;-85
2022/05/31 03:47:27;;;;;;;13.53;8.07;;;;;;;8.70;82.46;101184.44;5049772;28;20023;-85
2022/05/31 03:49:53;;;;;;;16.03;8.53;;;;;;;8.76;82.66;101183.69;5042994;28;20127;-85
2022/05/31 03:52:18;;;;;;;13.93;8.90;;;;;;;8.75;82.83;101189.28;5034168;28;20962;-85
2022/05/31 03:54:43;;;;;;;14.17;8.60;;;;;;;8.82;82.73;101195.59;5045540;28;20406;-85
2022/05/31 03:57:15;;;;;;;12.63;8.93;;;;;;;8.86;83.92;101183.38;5061722;28;20032;-85
2022/05/31 03:59:40;;;;;;;11.60;8.67;;;;;;;8.87;84.35;101190.44;5067767;28;20093;-85
2022/05/31 04:02:06;;;;;;;13.07;8.90;;;;;;;8.91;83.92;101188.22;5066471;28;20032;-85
2022/05/31 04:04:32;;;;;;;15.13;8.53;;;;;;;8.88;83.61;101178.63;5034489;28;20028;-85
2022/05/31 04:06:58;;;;;;;14.20;9.07;;;;;;;8.93;84.12;101197.81;5057285;28;20031;-85
2022/05/31 04:09:23;;;;;;;11.60;8.33;;;;;;;8.93;83.58;101189.69;5065584;28;20028;-85
2022/05/31 04:11:48;;;;;;;11.67;8.07;;;;;;;8.88;82.84;101183.16;5058407;28;20127;-85
2022/05/31 04:14:14;;;;;;;11.47;7.77;;;;;;;8.94;82.10;101187.81;5052659;28;20036;-85
2022/05/31 04:16:39;;;;;;;11.80;8.13;;;;;;;9.01;82.37;101188.72;5067226;28;20116;-85
2022/05/31 04:19:05;;;;;;;13.17;8.60;;;;;;;9.05;83.16;101190.00;5048927;28;20103;-85
2022/05/31 04:21:30;;;;;;;13.03;9.50;;;;;;;9.06;83.54;101182.75;5050359;28;20028;-85
2022/05/31 04:23:59;;;;;;;12.40;8.90;;;;;;;9.14;83.43;101188.03;5068996;28;20058;-85
2022/05/31 04:26:32;;;;;;;14.57;9.40;;;;;;;9.15;81.95;101195.06;5062638;28;20518;-85
2022/05/31 04:28:58;;;;;;;13.57;9.27;;;;;;;9.09;82.73;101187.75;5062498;28;20032;-85
2022/05/31 04:31:24;;;;;;;13.37;9.23;;;;;;;9.12;82.22;101190.06;5067569;28;20051;-85
2022/05/31 04:33:49;;;;;;;12.57;8.83;;;;;;;9.23;83.06;101189.56;5066267;28;20386;-85
2022/05/31 04:36:18;;;;;;;12.17;8.70;;;;;;;9.31;82.03;101196.69;5038283;28;20028;-85
2022/05/31 04:38:44;;;;;;;11.90;9.03;;;;;;;9.33;81.57;101188.38;5071971;28;20024;-85
2022/05/31 04:41:21;;;;;;;13.87;8.80;;;;;;;9.32;81.57;101189.41;5060974;28;20032;-85
2022/05/31 04:43:47;;;;;;;14.20;9.10;;;;;;;9.34;81.16;101187.34;5065458;28;20369;-85
2022/05/31 04:46:18;;;;;;;15.97;9.70;;;;;;;9.37;79.87;101197.75;5063962;28;20055;-85
2022/05/31 04:48:44;;;;;;;16.07;9.60;;;;;;;9.38;79.39;101188.63;5070674;28;20463;-85
2022/05/31 04:51:11;;;;;;;14.50;9.53;;;;;;;9.37;79.03;101182.38;5072269;28;20107;-85
2022/05/31 04:53:37;;;;;;;15.67;9.87;;;;;;;9.37;78.91;101185.09;5060691;28;20029;-85
2022/05/31 04:56:05;;;;;;;14.53;9.40;;;;;;;9.40;78.25;101186.56;5048642;28;20957;-86
2022/05/31 04:58:31;;;;;;;14.53;9.57;;;;;;;9.40;77.78;101187.41;5065732;28;20107;-85
2022/05/31 05:00:57;;;;;;;14.50;10.00;;;;;;;9.40;78.27;101178.47;5068618;28;20453;-85
2022/05/31 05:03:22;;;;;;;16.93;10.07;;;;;;;9.43;77.83;101183.47;5070633;28;20024;-85
2022/05/31 05:05:48;;;;;;;13.60;9.77;;;;;;;9.43;77.98;101183.47;5067583;28;20055;-85
2022/05/31 05:08:13;;;;;;;17.87;10.40;;;;;;;9.45;78.04;101184.94;5066468;28;20031;-86
2022/05/31 05:10:44;;;;;;;14.90;10.37;;;;;;;9.49;77.03;101182.66;5042675;28;20111;-85
2022/05/31 05:13:09;;;;;;;15.73;11.33;;;;;;;9.52;78.17;101179.59;5063907;28;20549;-85
2022/05/31 05:15:39;;;;;;;17.63;10.97;;;;;;;9.58;77.71;101189.63;5070482;28;20115;-85
2022/05/31 05:18:05;;;;;;;16.73;10.27;;;;;;;9.47;77.62;101165.81;5062797;28;20021;-85
2022/05/31 05:20:33;;;;;;;15.57;10.93;;;;;;;9.62;77.24;101179.25;5067134;28;20032;-85
2022/05/31 05:22:58;;;;;;;17.87;11.20;;;;;;;9.68;77.73;101174.91;5051665;28;20028;-86
2022/05/31 05:25:23;;;;;;;15.67;11.03;;;;;;;9.73;77.05;101180.56;5068765;28;20484;-86
2022/05/31 05:27:49;;;;;;;16.13;11.07;;;;;;;9.77;77.24;101179.13;5070298;28;20051;-85
2022/05/31 05:32:58;;;;;;;17.67;11.65;;;;;;;9.87;78.05;101170.66;5070604;28;20047;-86
2022/05/31 05:35:24;;;;;;;16.53;11.27;;;;;;;9.92;77.57;101179.84;5064409;28;20056;-86
2022/05/31 05:37:49;;;;;;;15.87;11.97;;;;;;;10.07;79.67;101182.44;5053118;28;20094;-85
2022/05/31 05:40:14;;;;;;;16.57;11.87;;;;;;;10.11;77.96;101177.47;5070313;28;20110;-86
2022/05/31 05:42:41;;;;;;;16.57;11.77;;;;;;;10.09;78.24;101180.38;5053068;28;20039;-86
2022/05/31 05:45:07;;;;;;;19.63;12.40;;;;;;;10.14;78.34;101174.34;5082208;28;20040;-86
2022/05/31 05:47:33;;;;;;;18.30;11.87;;;;;;;10.23;78.48;101175.84;5073936;28;20061;-86
2022/05/31 05:49:58;;;;;;;18.17;12.13;;;;;;;10.31;77.40;101188.38;5052587;28;20111;-86
2022/05/31 05:52:24;;;;;;;16.37;12.17;;;;;;;10.33;77.70;101180.88;5059594;28;20071;-85
2022/05/31 05:54:49;;;;;;;18.43;12.33;;;;;;;10.31;76.97;101189.22;5058580;28;20043;-85
2022/05/31 05:57:15;;;;;;;18.87;11.90;;;;;;;10.31;75.82;101189.22;5027682;28;20405;-85
2022/05/31 05:59:40;;;;;;;18.23;12.30;;;;;;;10.32;77.01;101179.19;5045987;28;20025;-85
2022/05/31 06:02:17;;;;;;;15.90;12.63;;;;;;;10.31;78.34;101183.81;5068761;28;20036;-85
2022/05/31 06:04:52;;;;;;;15.80;12.90;;;;;;;10.29;77.92;101174.19;5065716;28;20542;-86
2022/05/31 06:07:27;;;;;;;18.40;13.07;;;;;;;10.37;77.90;101187.59;5063530;28;20048;-86
2022/05/31 06:10:06;;;;;;;18.93;12.67;;;;;;;10.45;77.61;101175.75;5066929;28;20133;-86
2022/05/31 06:12:38;;;;;;;18.83;13.13;;;;;;;10.52;77.12;101181.19;5061723;28;20107;-86
2022/05/31 06:15:17;;;;;;;17.97;13.00;;;;;;;10.59;76.50;101191.03;5065027;28;20632;-86
2022/05/31 06:17:46;;;;;;;20.30;12.53;;;;;;;10.57;76.04;101186.84;5070253;28;20396;-86
2022/05/31 06:20:12;;;;;;;19.63;13.13;;;;;;;10.62;75.72;101174.34;5067488;28;20025;-86
2022/05/31 06:22:40;;;;;;;17.40;13.17;;;;;;;10.71;77.78;101171.47;5069289;28;20573;-86
2022/05/31 06:25:06;;;;;;;18.87;12.77;;;;;;;10.78;76.43;101173.16;5069668;28;20036;-86
2022/05/31 06:27:32;;;;;;;20.80;13.67;;;;;;;10.85;78.18;101175.84;5052260;28;20087;-86
2022/05/31 06:29:57;;;;;;;18.03;12.90;;;;;;;10.83;76.25;101172.53;5062442;28;20123;-86
2022/05/31 06:32:23;;;;;;;16.17;12.60;;;;;;;10.80;75.25;101178.38;5067093;28;20040;-86
2022/05/31 06:34:48;;;;;;;18.33;12.93;;;;;;;10.86;75.24;101174.81;5065046;28;20324;-86
2022/05/31 06:37:16;;;;;;;17.17;12.70;;;;;;;10.95;75.23;101172.78;5034749;28;20059;-86
2022/05/31 06:39:44;;;;;;;19.20;13.23;;;;;;;11.10;75.50;101167.97;5069683;28;20423;-86
2022/05/31 06:42:10;;;;;;;16.00;11.70;;;;;;;11.26;73.91;101171.31;5067280;28;20099;-86
2022/05/31 06:44:39;;;;;;;18.37;12.40;;;;;;;11.34;73.58;101170.28;5066825;28;20056;-86
2022/05/31 06:47:04;;;;;;;17.90;13.07;;;;;;;11.53;73.87;101180.28;5066738;28;20025;-86
2022/05/31 06:49:31;;;;;;;16.23;12.07;;;;;;;11.59;72.77;101184.06;5056932;28;20370;-85
2022/05/31 06:57:34;;;;;;;17.25;11.82;;;;;;;11.88;71.11;101179.19;5066370;28;21778;-86
2022/05/31 07:00:00;;;;;;;17.33;11.73;;;;;;;11.98;71.02;101183.19;5069881;28;20537;-85
2022/05/31 07:02:27;;;;;;;16.70;11.03;;;;;;;11.95;70.01;101177.31;5051968;28;20136;-85
2022/05/31 07:04:53;;;;;;;17.80;11.70;;;;;;;12.02;71.10;101178.13;5068700;28;20020;-86
2022/05/31 07:07:19;;;;;;;17.40;12.20;;;;;;;12.04;70.32;101177.94;5066725;28;20043;-86
2022/05/31 07:09:44;;;;;;;16.33;11.17;;;;;;;12.08;69.22;101168.31;5058007;28;20469;-85
2022/05/31 07:12:10;;;;;;;14.63;11.30;;;;;;;12.30;70.42;101175.13;5032070;28;20798;-86
2022/05/31 07:14:35;;;;;;;17.57;12.13;;;;;;;12.53;71.66;101181.94;5069674;28;20023;-86
2022/05/31 07:17:01;;;;;;;15.80;11.10;;;;;;;12.61;69.19;101176.22;5066801;28;20028;-85
2022/05/31 07:19:26;;;;;;;17.43;10.00;;;;;;;12.69;66.57;101171.59;5069560;28;20496;-84
2022/05/31 07:21:52;;;;;;;14.73;10.27;;;;;;;12.83;68.34;101162.31;5057031;28;20032;-85
2022/05/31 07:24:17;;;;;;;12.87;8.70;;;;;;;12.90;65.57;101165.81;5051166;28;20032;-85
2022/05/31 07:26:42;;;;;;;11.63;8.83;;;;;;;13.03;65.18;101167.63;5059420;28;20052;-85
2022/05/31 07:29:09;;;;;;;14.33;9.67;;;;;;;13.24;66.16;101162.84;5040873;28;20516;-85
2022/05/31 07:31:36;;;;;;;13.50;8.40;;;;;;;13.32;65.27;101168.84;5057010;28;20173;-85
2022/05/31 07:34:01;;;;;;;12.97;7.57;;;;;;;13.52;64.96;101170.59;5058769;28;20067;-85
2022/05/31 07:36:27;;;;;;;9.67;6.50;;;;;;;13.48;61.57;101163.94;5039498;28;20119;-85
2022/05/31 07:38:53;;;;;;;9.30;6.93;;;;;;;13.53;62.27;101166.84;5057968;28;20127;-85
2022/05/31 07:41:19;;;;;;;9.40;6.33;;;;;;;13.65;61.49;101173.19;5059841;28;20028;-85
2022/05/31 07:43:44;;;;;;;11.67;6.60;;;;;;;13.81;62.54;101168.22;5026906;28;20039;-86
2022/05/31 07:46:13;;;;;;;9.77;5.83;;;;;;;13.93;61.40;101171.84;5040031;28;20037;-85
2022/05/31 07:48:39;;;;;;;8.80;6.23;;;;;;;14.13;61.15;101171.63;5052969;28;20416;-85
2022/05/31 07:51:05;;;;;;;13.27;6.80;;;;;;;14.30;60.50;101176.47;5042924;28;20283;-85
2022/05/31 07:53:31;;;;;;;9.50;6.47;;;;;;;14.40;59.60;101174.06;5057868;28;20120;-85
2022/05/31 07:56:06;;;;;;;11.33;6.70;;;;;;;14.56;59.79;101164.38;5058139;28;20119;-85
2022/05/31 07:58:33;;;;;;;11.63;6.73;;;;;;;14.61;57.42;101159.06;5058905;28;20115;-84
2022/05/31 08:01:03;;;;;;;10.93;6.67;;;;;;;14.77;59.10;101163.09;5058831;28;20032;-85
2022/05/31 08:03:29;;;;;;;7.13;5.77;;;;;;;14.84;56.24;101154.81;5073990;28;20024;-85
2022/05/31 08:05:55;;;;;;;11.23;6.50;;;;;;;15.01;57.13;101155.81;5040812;28;20033;-85
2022/05/31 08:08:21;;;;;;;8.50;6.20;;;;;;;15.12;56.13;101158.78;5052128;28;20564;-85
2022/05/31 08:10:46;;;;;;;8.67;6.30;;;;;;;15.23;56.87;101157.97;5056136;28;20067;-85
2022/05/31 08:13:11;;;;;;;9.33;6.20;;;;;;;15.34;56.99;101151.69;5062947;28;20040;-85
2022/05/31 08:15:37;;;;;;;11.87;6.40;;;;;;;15.53;55.35;101159.78;5045669;28;20067;-86
2022/05/31 08:18:02;;;;;;;10.70;6.43;;;;;;;15.80;56.89;101148.38;5048552;28;20131;-86
2022/05/31 08:20:28;;;;;;;7.67;5.43;;;;;;;15.81;55.08;101160.97;5060639;28;20044;-85
2022/05/31 08:22:53;;;;;;;7.67;5.60;;;;;;;15.93;55.07;101145.38;5055425;28;20037;-84
2022/05/31 08:25:19;;;;;;;8.70;4.43;;;;;;;16.02;52.45;101151.34;5039263;28;20481;-86
2022/05/31 08:27:45;;;;;;;6.03;4.60;;;;;;;16.18;52.75;101147.00;5047283;28;20061;-85
2022/05/31 08:30:11;;;;;;;7.03;4.17;;;;;;;16.38;52.67;101147.41;5060957;28;20488;-86
2022/05/31 08:32:36;;;;;;;5.93;3.93;;;;;;;16.56;51.41;101136.53;5059876;28;20150;-86
2022/05/31 08:35:04;;;;;;;4.70;3.20;;;;;;;16.57;49.10;101144.47;5043371;28;20104;-85
2022/05/31 08:37:30;;;;;;;5.70;3.30;;;;;;;16.72;50.46;101143.94;5060778;28;20120;-86
2022/05/31 08:39:56;;;;;;;4.20;3.60;;;;;;;16.78;49.69;101140.22;5060465;28;20060;-86
2022/05/31 08:42:31;;;;;;;7.20;4.10;;;;;;;16.98;51.28;101139.75;5059494;28;20116;-85
2022/05/31 08:45:07;;;;;;;7.63;3.93;;;;;;;17.25;49.63;101132.81;5055283;28;20054;-86
2022/05/31 08:48:03;;;;;;;6.70;4.40;;;;;;;17.68;51.09;101136.75;5051625;28;20442;-86
2022/05/31 08:53:37;;;;;;;7.77;4.97;;;;;;;17.72;48.63;101143.41;5060943;28;20048;-86
2022/05/31 08:58:59;;;;;;;7.07;4.70;;;;;;;17.93;48.58;101147.25;5061724;28;20407;-85
2022/05/31 09:01:30;;;;;;;9.27;5.07;;;;;;;17.97;47.46;101145.66;5060425;28;20031;-85
2022/05/31 09:04:11;;;;;;;6.10;4.40;;;;;;;18.33;48.43;101159.84;5059867;28;20070;-86
2022/05/31 09:06:52;;;;;;;6.50;4.47;;;;;;;18.33;47.07;101148.88;5053205;28;20073;-86
2022/05/31 09:09:26;;;;;;;5.60;4.10;;;;;;;18.12;46.79;101144.22;5059519;28;20025;-85
2022/05/31 09:11:54;;;;;;;6.33;3.80;;;;;;;17.78;45.50;101141.53;5049897;28;20128;-86
2022/05/31 09:14:30;;;;;;;4.73;4.17;;;;;;;17.76;46.08;101146.44;5058030;28;20631;-85
2022/05/31 09:17:20;;;;;;;5.87;4.53;;;;;;;17.90;46.42;101150.47;5057735;28;20503;-86
2022/05/31 09:20:03;;;;;;;6.63;4.60;;;;;;;18.28;46.52;101145.22;5060360;28;20036;-86
2022/05/31 09:22:29;;;;;;;6.80;4.90;;;;;;;18.23;46.16;101149.53;5057446;28;21531;-86
2022/05/31 09:24:54;;;;;;;7.07;4.70;;;;;;;18.40;45.41;101143.19;5059040;28;20465;-86
2022/05/31 09:27:27;;;;;;;6.85;4.43;;;;;;;19.00;47.52;101135.03;5059898;28;20051;-87
2022/05/31 09:30:09;;;;;;;9.00;4.90;;;;;;;19.09;44.60;101141.66;5063675;28;20097;-86
2022/05/31 09:32:57;;;;;;;7.70;4.70;;;;;;;19.58;47.38;101140.66;5062380;28;20056;-88
2022/05/31 09:35:35;;;;;;;6.15;5.03;;;;;;;19.74;43.58;101144.31;5062620;28;20118;-87
2022/05/31 09:38:32;;;;;;;7.95;4.60;;;;;;;20.01;44.95;101138.72;5056114;28;20358;-86
2022/05/31 09:41:08;;;;;;;6.70;4.10;;;;;;;19.76;40.79;101141.31;5068031;28;20070;-87
2022/05/31 09:43:47;;;;;;;6.75;4.40;;;;;;;19.94;41.27;101129.88;5065338;28;20054;-87
2022/05/31 09:46:38;;;;;;;7.97;4.32;;;;;;;20.18;44.21;101145.94;5055785;28;20743;-87
2022/05/31 09:49:23;;;;;;;6.07;4.22;;;;;;;20.26;44.19;101141.84;5057090;28;20032;-87
2022/05/31 09:51:48;;;;;;;6.15;4.18;;;;;;;20.26;41.80;101142.66;5056149;28;20102;-87
2022/05/31 09:57:06;;;;;;;8.15;4.80;;;;;;;19.89;41.82;101136.19;5056497;28;20070;-86
2022/05/31 09:59:35;;;;;;;7.13;4.68;;;;;;;20.15;41.94;101132.72;5057379;28;20059;-87
2022/05/31 10:02:26;;;;;;;8.10;4.25;;;;;;;20.40;41.51;101141.06;5049233;28;20484;-87
2022/05/31 10:05:09;;;;;;;7.18;4.65;;;;;;;20.49;42.21;101135.84;5057224;28;20058;-87
2022/05/31 10:07:37;;;;;;;6.85;4.57;;;;;;;20.54;42.87;101135.03;5054966;28;20063;-87
2022/05/31 10:10:08;;;;;;;7.20;4.75;;;;;;;20.71;41.79;101138.41;5063302;28;20028;-87
2022/05/31 10:12:34;;;;;;;5.57;4.78;;;;;;;20.81;40.12;101139.53;5070613;28;20093;-87
2022/05/31 10:15:03;;;;;;;7.47;5.03;;;;;;;20.66;39.34;101129.28;5070283;28;21820;-87
2022/05/31 10:17:42;;;;;;;7.93;4.93;;;;;;;21.00;41.02;101134.31;5055029;28;20056;-86
2022/05/31 10:20:12;;;;;;;5.40;4.85;;;;;;;20.75;38.10;101135.91;5067023;28;20556;-86
2022/05/31 10:22:59;;;;;;;7.95;4.80;;;;;;;20.81;37.90;101134.03;5067524;28;20674;-86
2022/05/31 10:25:46;;;;;;;6.53;4.50;;;;;;;21.46;40.24;101138.94;5064917;28;20040;-87
2022/05/31 10:28:19;;;;;;;7.60;4.93;;;;;;;21.50;39.85;101134.53;5066109;28;20082;-86
2022/05/31 10:30:52;;;;;;;7.80;4.43;;;;;;;21.72;40.25;101126.78;5084136;28;20473;-86
2022/05/31 10:33:25;;;;;;;6.93;4.80;;;;;;;21.59;37.61;101132.91;5065256;28;20039;-86
2022/05/31 10:36:18;;;;;;;7.15;4.85;;;;;;;21.88;38.77;101135.00;5058645;28;20029;-87
2022/05/31 10:38:46;;;;;;;6.18;4.80;;;;;;;21.57;37.62;101129.59;5063530;28;20186;-87
2022/05/31 10:41:31;;;;;;;7.60;4.68;;;;;;;22.25;37.86;101128.25;5065965;28;20035;-86
2022/05/31 10:44:35;;;;;;;7.00;5.20;;;;;;;22.13;37.79;101125.81;5061771;28;20495;-86
2022/05/31 10:47:10;;;;;;;9.00;5.60;;;;;;;21.23;37.72;101119.97;5053857;28;20096;-87
2022/05/31 10:49:36;;;;;;;7.05;4.90;;;;;;;21.00;37.82;101113.09;5060014;28;20534;-87
2022/05/31 10:52:20;;;;;;;7.90;5.18;;;;;;;21.02;37.61;101116.38;5061399;28;20127;-86
2022/05/31 10:55:02;;;;;;;7.68;5.00;;;;;;;20.80;38.51;101113.09;5056578;28;20036;-87
2022/05/31 10:57:43;;;;;;;9.48;5.15;;;;;;;20.78;39.54;101118.03;5067605;28;20035;-87
2022/05/31 11:00:26;;;;;;;7.88;5.80;;;;;;;20.45;40.87;101114.66;5068242;28;20040;-86
2022/05/31 11:03:13;;;;;;;6.97;4.85;;;;;;;20.42;42.16;101100.31;5064705;28;20021;-87
2022/05/31 11:06:11;;;;;;;7.22;4.80;;;;;;;20.49;41.83;101093.75;5063523;28;20029;-87
2022/05/31 11:12:13;;;;;;;7.57;4.85;;;;;;;20.55;41.60;101101.75;5043280;28;20080;-87
2022/05/31 11:15:16;;;;;;;7.90;5.07;;;;;;;20.64;40.68;101109.47;5064171;28;20029;-87
2022/05/31 11:17:47;;;;;;;7.45;5.20;;;;;;;20.02;39.32;101104.63;5068695;28;20031;-86
2022/05/31 11:20:41;;;;;;;8.10;5.13;;;;;;;20.01;40.44;101111.22;5066771;28;20396;-86
2022/05/31 11:23:16;;;;;;;8.63;5.72;;;;;;;19.65;40.10;101112.94;5059646;28;20404;-86
2022/05/31 11:26:16;;;;;;;7.80;5.28;;;;;;;19.60;42.47;101111.00;5062697;28;20032;-86
2022/05/31 11:29:00;;;;;;;6.97;5.30;;;;;;;19.23;42.10;101114.59;5069180;28;20067;-86
2022/05/31 11:32:04;;;;;;;11.13;6.13;;;;;;;18.98;43.33;101121.53;5063472;28;20034;-86
2022/05/31 11:34:39;;;;;;;9.27;5.95;;;;;;;18.30;43.92;101116.44;5065005;28;20068;-86
2022/05/31 11:37:23;;;;;;;12.10;6.10;;;;;;;18.00;44.81;101119.66;5064868;28;20028;-86
2022/05/31 11:40:17;;;;;;;9.65;6.68;;;;;;;17.46;46.05;101101.09;5064142;28;20033;-85
2022/05/31 11:43:23;;;;;;;8.90;6.43;;;;;;;17.33;47.26;101113.22;5064849;28;20689;-85
2022/05/31 11:46:01;;;;;;;10.40;6.97;;;;;;;17.16;47.56;101119.56;5083653;28;20028;-86
2022/05/31 11:48:48;;;;;;;10.93;6.60;;;;;;;16.95;47.44;101115.63;5056729;28;20037;-86
2022/05/31 11:51:23;;;;;;;9.90;6.17;;;;;;;16.88;46.73;101121.25;5068443;28;20146;-86
2022/05/31 11:54:07;;;;;;;11.60;6.20;;;;;;;16.74;46.71;101113.59;5053630;28;20033;-86
2022/05/31 11:57:01;;;;;;;9.18;6.22;;;;;;;16.76;45.67;101123.22;5056349;28;20085;-86
2022/05/31 11:59:46;;;;;;;8.10;6.13;;;;;;;16.78;46.53;101120.22;5068101;28;20062;-86
2022/05/31 12:02:11;;;;;;;;;;;;;;;16.86;47.94;101112.47;5060233;28;20510;-86
2022/05/31 12:04:43;;;;;;;12.10;7.40;;;;;;;16.54;49.06;101118.44;5057323;28;20003;-86